Blue Star 1 — SWET — position and weather

sailwx.info

Track history (hours):
 
Tides and Currents Weather Stations Pressure Air Temp Water Temp Dewpoint Dewpoint Depression Visibility Wind Speed Wind Dir Waves Ship Positions

Blue Star 1

Last reported at 2017-Jun-23 19:35 UTC. Time now 2017-Jun-24 10:17 UTC.
Position N 37°37' E 024°05'.

Length 176 m; draft 6.5 m.

Type: Passenger vessel. MMSI: 239710000.

Date/timePositionNaut miles runAvg speedWind from/ knotsBaromVisibWave heightAir tempDewpointWater temp
2017-Jun-23 19:35N 37°37' E 024°05'225.4
2017-Jun-23 19:30N 37°37' E 024°02'1325.9
2017-Jun-23 19:01N 37°39' E 023°47'1224.0
2017-Jun-23 18:31N 37°48' E 023°38'816.4
2017-Jun-23 18:00N 37°56' E 023°38'0 0.0
2017-Jun-23 17:30N 37°56' E 023°38'0 0.0
2017-Jun-23 17:00N 37°56' E 023°38'0 0.0
2017-Jun-23 16:30N 37°56' E 023°38'0 0.0
2017-Jun-23 16:01N 37°56' E 023°38'0 0.0
2017-Jun-23 15:30N 37°56' E 023°38'4 7.5
2017-Jun-23 15:01N 37°53' E 023°38'2121.3
2017-Jun-23 14:00N 37°37' E 023°57'1621.9
2017-Jun-23 13:16N 37°44' E 024°16'11 0.6
2017-Jun-22 18:37N 37°37' E 024°05'325.2
2017-Jun-22 18:30N 37°37' E 024°01'1225.5
2017-Jun-22 18:01N 37°39' E 023°46'1224.2
2017-Jun-22 17:30N 37°49' E 023°37'815.2
2017-Jun-22 17:01N 37°56' E 023°38'0 0.0
2017-Jun-22 16:31N 37°56' E 023°38'0 0.0
2017-Jun-22 16:00N 37°56' E 023°38'0 0.0
2017-Jun-22 15:30N 37°56' E 023°38'0 0.0
2017-Jun-22 15:00N 37°56' E 023°38'0 0.0
2017-Jun-22 14:30N 37°56' E 023°38'0 0.0
2017-Jun-22 13:30N 37°56' E 023°38'0 0.0
2017-Jun-22 12:59N 37°56' E 023°38'0 0.0
2017-Jun-22 12:29N 37°56' E 023°38'0 0.0
2017-Jun-22 11:59N 37°56' E 023°38'0 0.0
2017-Jun-22 11:29N 37°56' E 023°38'0 0.0
2017-Jun-22 10:59N 37°56' E 023°38'0 0.0
2017-Jun-22 10:29N 37°56' E 023°38'0 0.0
2017-Jun-22 09:59N 37°56' E 023°38'0 0.0
2017-Jun-22 09:29N 37°56' E 023°38'0 0.0
2017-Jun-22 08:59N 37°56' E 023°38'0 0.0
2017-Jun-22 08:29N 37°56' E 023°38'0 0.0
2017-Jun-22 07:59N 37°56' E 023°38'0 0.0
2017-Jun-22 07:29N 37°56' E 023°38'0 0.0
2017-Jun-22 06:59N 37°56' E 023°38'0 0.0
2017-Jun-22 06:29N 37°56' E 023°38'0 0.0
2017-Jun-22 05:59N 37°56' E 023°38'0 0.0
2017-Jun-22 05:29N 37°56' E 023°38'0 0.0
2017-Jun-22 04:58N 37°56' E 023°38'0 0.0
2017-Jun-22 04:28N 37°56' E 023°38'0 0.0
2017-Jun-22 04:00N 37°56' E 023°38'0 0.3
2017-Jun-22 03:30N 37°56' E 023°38'714.2
2017-Jun-22 03:00N 37°50' E 023°40'1122.5
2017-Jun-22 02:31N 37°40' E 023°47'1422.3
2017-Jun-22 01:53N 37°38' E 024°04'1122.7
2017-Jun-22 01:24N 37°44' E 024°16'11 0.4
2017-Jun-20 19:57N 37°37' E 024°05'919.3
2017-Jun-20 19:31N 37°37' E 023°54'1019.3
2017-Jun-20 19:01N 37°40' E 023°43'1019.3
2017-Jun-20 18:31N 37°49' E 023°37'815.1
2017-Jun-20 18:00N 37°56' E 023°38'0 0.0
2017-Jun-20 17:29N 37°56' E 023°38'0 0.0
2017-Jun-20 16:56N 37°56' E 023°38'0 0.0
2017-Jun-20 16:29N 37°56' E 023°38'0 0.0
2017-Jun-20 15:59N 37°56' E 023°38'0 0.0
2017-Jun-20 15:29N 37°56' E 023°38'0 0.0
2017-Jun-20 14:23N 37°56' E 023°38'0 0.0
2017-Jun-20 04:36N 37°56' E 023°38'0 0.0
2017-Jun-20 04:30N 37°56' E 023°38'0 0.0
2017-Jun-20 03:58N 37°56' E 023°38'0 0.0
2017-Jun-20 03:30N 37°56' E 023°38'510.5
2017-Jun-20 03:01N 37°51' E 023°38'1122.0
2017-Jun-20 02:30N 37°42' E 023°45'16 0.5
2017-Jun-18 20:00N 37°37' E 024°05'1019.6
2017-Jun-18 19:30N 37°38' E 023°53'918.8
2017-Jun-18 19:00N 37°41' E 023°42'1019.5
2017-Jun-18 18:30N 37°50' E 023°37'612.9
2017-Jun-18 18:01N 37°56' E 023°38'0 0.0
2017-Jun-18 17:31N 37°56' E 023°38'0 0.0
2017-Jun-18 17:00N 37°56' E 023°38'0 0.0
2017-Jun-18 16:31N 37°56' E 023°38'0 0.8
2017-Jun-18 16:00N 37°56' E 023°37'1020.8
2017-Jun-18 15:30N 37°47' E 023°42'1224.0
2017-Jun-18 15:00N 37°38' E 023°53'1823.4
2017-Jun-18 14:13N 37°44' E 024°16'11 0.6
2017-Jun-17 19:36N 37°37' E 024°05'925.0
2017-Jun-17 19:14N 37°37' E 023°54'625.5
2017-Jun-17 19:00N 37°39' E 023°46'1224.1
2017-Jun-17 18:30N 37°48' E 023°37'917.1
2017-Jun-17 18:00N 37°56' E 023°38'0 0.0
2017-Jun-17 17:31N 37°56' E 023°38'0 0.0
2017-Jun-17 17:01N 37°56' E 023°38'0 0.0
2017-Jun-17 16:30N 37°56' E 023°38'0 0.0
2017-Jun-17 16:00N 37°56' E 023°38'0 0.0
2017-Jun-17 15:31N 37°56' E 023°38'3 6.4
2017-Jun-17 15:01N 37°53' E 023°38'1122.9
2017-Jun-17 14:31N 37°43' E 023°45'2519.9
2017-Jun-17 13:15N 37°44' E 024°16'3922.7
2017-Jun-17 11:31N 38°03' E 024°60'722.5
2017-Jun-17 11:13N 38°03' E 025°08'822.6
2017-Jun-17 10:51N 38°04' E 025°19'64 4.2
2017-Jun-16 19:32N 37°37' E 024°05'725.4
2017-Jun-16 19:15N 37°37' E 023°56'725.7
2017-Jun-16 19:00N 37°39' E 023°48'1223.7
2017-Jun-16 18:31N 37°47' E 023°38'918.3
2017-Jun-16 18:00N 37°56' E 023°38'0 0.0
2017-Jun-16 17:31N 37°56' E 023°38'0 0.0
2017-Jun-16 17:01N 37°56' E 023°38'0 0.0
2017-Jun-16 16:31N 37°56' E 023°38'0 0.0
2017-Jun-16 16:01N 37°56' E 023°38'0 0.0
2017-Jun-16 15:31N 37°56' E 023°38'0 0.1
2017-Jun-16 15:01N 37°56' E 023°38'2019.9
2017-Jun-16 14:01N 37°39' E 023°51'4 0.2
2017-Jun-15 19:49N 37°37' E 023°55'825.4
2017-Jun-15 19:31N 37°39' E 023°46'1224.4
2017-Jun-15 19:01N 37°49' E 023°38'714.3
2017-Jun-15 18:30N 37°56' E 023°38'0 0.0
2017-Jun-15 18:00N 37°56' E 023°38'0 0.0
2017-Jun-15 17:30N 37°56' E 023°38'0 0.0
2017-Jun-15 17:00N 37°56' E 023°38'0 0.1
2017-Jun-15 16:31N 37°56' E 023°38'917.2
2017-Jun-15 16:01N 37°48' E 023°41'1325.6
2017-Jun-15 15:30N 37°39' E 023°52'4225.6
2017-Jun-15 13:53N 37°31' E 024°44'1026.3
2017-Jun-15 13:31N 37°31' E 024°56'4 7.5
2017-Jun-15 12:55N 37°26' E 024°57'614.6
2017-Jun-15 12:30N 37°29' E 025°03'611.1
2017-Jun-15 12:00N 37°32' E 025°09'816.3
2017-Jun-15 11:30N 37°28' E 025°18'1 2.3
2017-Jun-15 11:01N 37°28' E 025°19'0 0.0
2017-Jun-15 10:31N 37°28' E 025°19'0 0.0
2017-Jun-15 10:01N 37°28' E 025°19'815.3
2017-Jun-15 09:31N 37°31' E 025°10'2 4.1
2017-Jun-15 09:00N 37°32' E 025°08'1120.7
2017-Jun-15 08:29N 37°26' E 024°57'0 0.0
2017-Jun-15 08:00N 37°26' E 024°57'713.4
2017-Jun-15 07:30N 37°32' E 024°51'3925.0
2017-Jun-15 05:56N 37°35' E 024°02'1125.7
2017-Jun-15 05:30N 37°38' E 023°49'1223.8
2017-Jun-15 05:01N 37°47' E 023°39'1019.1
2017-Jun-15 04:30N 37°56' E 023°38'0 0.0
2017-Jun-15 04:00N 37°56' E 023°38'0 0.0
2017-Jun-15 03:30N 37°56' E 023°38'0 0.0
2017-Jun-15 03:00N 37°56' E 023°38'0 0.0
2017-Jun-15 02:30N 37°56' E 023°38'714.3
2017-Jun-15 02:01N 37°50' E 023°41'1224.5
2017-Jun-15 01:31N 37°40' E 023°49'1424.7
2017-Jun-15 00:56N 37°38' E 024°07'7 0.2
2017-Jun-13 19:40N 37°37' E 023°58'  
Track history (hours):
 
Tides and Currents Weather Stations Pressure Air Temp Water Temp Dewpoint Dewpoint Depression Visibility Wind Speed Wind Dir Waves Ship Positions

Blue Star 1

Last reported at 2017-Jun-23 19:35 UTC. Time now 2017-Jun-24 10:17 UTC.
Position N 37°37' E 024°05'.

Length 176 m; draft 6.5 m.

Type: Passenger vessel. MMSI: 239710000.

Date/timePositionNaut miles runAvg speedWind from/ knotsBaromVisibWave heightAir tempDewpointWater temp
2017-Jun-23 19:35N 37°37' E 024°05'225.4
2017-Jun-23 19:30N 37°37' E 024°02'1325.9
2017-Jun-23 19:01N 37°39' E 023°47'1224.0
2017-Jun-23 18:31N 37°48' E 023°38'816.4
2017-Jun-23 18:00N 37°56' E 023°38'0 0.0
2017-Jun-23 17:30N 37°56' E 023°38'0 0.0
2017-Jun-23 17:00N 37°56' E 023°38'0 0.0
2017-Jun-23 16:30N 37°56' E 023°38'0 0.0
2017-Jun-23 16:01N 37°56' E 023°38'0 0.0
2017-Jun-23 15:30N 37°56' E 023°38'4 7.5
2017-Jun-23 15:01N 37°53' E 023°38'2121.3
2017-Jun-23 14:00N 37°37' E 023°57'1621.9
2017-Jun-23 13:16N 37°44' E 024°16'11 0.6
2017-Jun-22 18:37N 37°37' E 024°05'325.2
2017-Jun-22 18:30N 37°37' E 024°01'1225.5
2017-Jun-22 18:01N 37°39' E 023°46'1224.2
2017-Jun-22 17:30N 37°49' E 023°37'815.2
2017-Jun-22 17:01N 37°56' E 023°38'0 0.0
2017-Jun-22 16:31N 37°56' E 023°38'0 0.0
2017-Jun-22 16:00N 37°56' E 023°38'0 0.0
2017-Jun-22 15:30N 37°56' E 023°38'0 0.0
2017-Jun-22 15:00N 37°56' E 023°38'0 0.0
2017-Jun-22 14:30N 37°56' E 023°38'0 0.0
2017-Jun-22 13:30N 37°56' E 023°38'0 0.0
2017-Jun-22 12:59N 37°56' E 023°38'0 0.0
2017-Jun-22 12:29N 37°56' E 023°38'0 0.0
2017-Jun-22 11:59N 37°56' E 023°38'0 0.0
2017-Jun-22 11:29N 37°56' E 023°38'0 0.0
2017-Jun-22 10:59N 37°56' E 023°38'0 0.0
2017-Jun-22 10:29N 37°56' E 023°38'0 0.0
2017-Jun-22 09:59N 37°56' E 023°38'0 0.0
2017-Jun-22 09:29N 37°56' E 023°38'0 0.0
2017-Jun-22 08:59N 37°56' E 023°38'0 0.0
2017-Jun-22 08:29N 37°56' E 023°38'0 0.0
2017-Jun-22 07:59N 37°56' E 023°38'0 0.0
2017-Jun-22 07:29N 37°56' E 023°38'0 0.0
2017-Jun-22 06:59N 37°56' E 023°38'0 0.0
2017-Jun-22 06:29N 37°56' E 023°38'0 0.0
2017-Jun-22 05:59N 37°56' E 023°38'0 0.0
2017-Jun-22 05:29N 37°56' E 023°38'0 0.0
2017-Jun-22 04:58N 37°56' E 023°38'0 0.0
2017-Jun-22 04:28N 37°56' E 023°38'0 0.0
2017-Jun-22 04:00N 37°56' E 023°38'0 0.3
2017-Jun-22 03:30N 37°56' E 023°38'714.2
2017-Jun-22 03:00N 37°50' E 023°40'1122.5
2017-Jun-22 02:31N 37°40' E 023°47'1422.3
2017-Jun-22 01:53N 37°38' E 024°04'1122.7
2017-Jun-22 01:24N 37°44' E 024°16'11 0.4
2017-Jun-20 19:57N 37°37' E 024°05'919.3
2017-Jun-20 19:31N 37°37' E 023°54'1019.3
2017-Jun-20 19:01N 37°40' E 023°43'1019.3
2017-Jun-20 18:31N 37°49' E 023°37'815.1
2017-Jun-20 18:00N 37°56' E 023°38'0 0.0
2017-Jun-20 17:29N 37°56' E 023°38'0 0.0
2017-Jun-20 16:56N 37°56' E 023°38'0 0.0
2017-Jun-20 16:29N 37°56' E 023°38'0 0.0
2017-Jun-20 15:59N 37°56' E 023°38'0 0.0
2017-Jun-20 15:29N 37°56' E 023°38'0 0.0
2017-Jun-20 14:23N 37°56' E 023°38'0 0.0
2017-Jun-20 04:36N 37°56' E 023°38'0 0.0
2017-Jun-20 04:30N 37°56' E 023°38'0 0.0
2017-Jun-20 03:58N 37°56' E 023°38'0 0.0
2017-Jun-20 03:30N 37°56' E 023°38'510.5
2017-Jun-20 03:01N 37°51' E 023°38'1122.0
2017-Jun-20 02:30N 37°42' E 023°45'16 0.5
2017-Jun-18 20:00N 37°37' E 024°05'1019.6
2017-Jun-18 19:30N 37°38' E 023°53'918.8
2017-Jun-18 19:00N 37°41' E 023°42'1019.5
2017-Jun-18 18:30N 37°50' E 023°37'612.9
2017-Jun-18 18:01N 37°56' E 023°38'0 0.0
2017-Jun-18 17:31N 37°56' E 023°38'0 0.0
2017-Jun-18 17:00N 37°56' E 023°38'0 0.0
2017-Jun-18 16:31N 37°56' E 023°38'0 0.8
2017-Jun-18 16:00N 37°56' E 023°37'1020.8
2017-Jun-18 15:30N 37°47' E 023°42'1224.0
2017-Jun-18 15:00N 37°38' E 023°53'1823.4
2017-Jun-18 14:13N 37°44' E 024°16'11 0.6
2017-Jun-17 19:36N 37°37' E 024°05'925.0
2017-Jun-17 19:14N 37°37' E 023°54'625.5
2017-Jun-17 19:00N 37°39' E 023°46'1224.1
2017-Jun-17 18:30N 37°48' E 023°37'917.1
2017-Jun-17 18:00N 37°56' E 023°38'0 0.0
2017-Jun-17 17:31N 37°56' E 023°38'0 0.0
2017-Jun-17 17:01N 37°56' E 023°38'0 0.0
2017-Jun-17 16:30N 37°56' E 023°38'0 0.0
2017-Jun-17 16:00N 37°56' E 023°38'0 0.0
2017-Jun-17 15:31N 37°56' E 023°38'3 6.4
2017-Jun-17 15:01N 37°53' E 023°38'1122.9
2017-Jun-17 14:31N 37°43' E 023°45'2519.9
2017-Jun-17 13:15N 37°44' E 024°16'3922.7
2017-Jun-17 11:31N 38°03' E 024°60'722.5
2017-Jun-17 11:13N 38°03' E 025°08'822.6
2017-Jun-17 10:51N 38°04' E 025°19'64 4.2
2017-Jun-16 19:32N 37°37' E 024°05'725.4
2017-Jun-16 19:15N 37°37' E 023°56'725.7
2017-Jun-16 19:00N 37°39' E 023°48'1223.7
2017-Jun-16 18:31N 37°47' E 023°38'918.3
2017-Jun-16 18:00N 37°56' E 023°38'0 0.0
2017-Jun-16 17:31N 37°56' E 023°38'0 0.0
2017-Jun-16 17:01N 37°56' E 023°38'0 0.0
2017-Jun-16 16:31N 37°56' E 023°38'0 0.0
2017-Jun-16 16:01N 37°56' E 023°38'0 0.0
2017-Jun-16 15:31N 37°56' E 023°38'0 0.1
2017-Jun-16 15:01N 37°56' E 023°38'2019.9
2017-Jun-16 14:01N 37°39' E 023°51'4 0.2
2017-Jun-15 19:49N 37°37' E 023°55'825.4
2017-Jun-15 19:31N 37°39' E 023°46'1224.4
2017-Jun-15 19:01N 37°49' E 023°38'714.3
2017-Jun-15 18:30N 37°56' E 023°38'0 0.0
2017-Jun-15 18:00N 37°56' E 023°38'0 0.0
2017-Jun-15 17:30N 37°56' E 023°38'0 0.0
2017-Jun-15 17:00N 37°56' E 023°38'0 0.1
2017-Jun-15 16:31N 37°56' E 023°38'917.2
2017-Jun-15 16:01N 37°48' E 023°41'1325.6
2017-Jun-15 15:30N 37°39' E 023°52'4225.6
2017-Jun-15 13:53N 37°31' E 024°44'1026.3
2017-Jun-15 13:31N 37°31' E 024°56'4 7.5
2017-Jun-15 12:55N 37°26' E 024°57'614.6
2017-Jun-15 12:30N 37°29' E 025°03'611.1
2017-Jun-15 12:00N 37°32' E 025°09'816.3
2017-Jun-15 11:30N 37°28' E 025°18'1 2.3
2017-Jun-15 11:01N 37°28' E 025°19'0 0.0
2017-Jun-15 10:31N 37°28' E 025°19'0 0.0
2017-Jun-15 10:01N 37°28' E 025°19'815.3
2017-Jun-15 09:31N 37°31' E 025°10'2 4.1
2017-Jun-15 09:00N 37°32' E 025°08'1120.7
2017-Jun-15 08:29N 37°26' E 024°57'0 0.0
2017-Jun-15 08:00N 37°26' E 024°57'713.4
2017-Jun-15 07:30N 37°32' E 024°51'3925.0
2017-Jun-15 05:56N 37°35' E 024°02'1125.7
2017-Jun-15 05:30N 37°38' E 023°49'1223.8
2017-Jun-15 05:01N 37°47' E 023°39'1019.1
2017-Jun-15 04:30N 37°56' E 023°38'0 0.0
2017-Jun-15 04:00N 37°56' E 023°38'0 0.0
2017-Jun-15 03:30N 37°56' E 023°38'0 0.0
2017-Jun-15 03:00N 37°56' E 023°38'0 0.0
2017-Jun-15 02:30N 37°56' E 023°38'714.3
2017-Jun-15 02:01N 37°50' E 023°41'1224.5
2017-Jun-15 01:31N 37°40' E 023°49'1424.7
2017-Jun-15 00:56N 37°38' E 024°07'7 0.2
2017-Jun-13 19:40N 37°37' E 023°58'  

Dump ship's entire track history